createdAt,value
2018-10-21T00:00:45.537Z,8.10
2018-10-21T00:03:13.648Z,8.00
2018-10-21T00:05:41.661Z,7.90
2018-10-21T00:08:09.738Z,7.90
2018-10-21T00:10:38.095Z,7.80
2018-10-21T00:13:06.161Z,7.70
2018-10-21T00:15:34.381Z,7.70
2018-10-21T00:18:02.313Z,7.70
2018-10-21T00:20:30.456Z,7.60
2018-10-21T00:22:58.522Z,7.60
2018-10-21T00:25:26.609Z,7.70
2018-10-21T00:27:54.698Z,7.80
2018-10-21T00:30:22.763Z,7.90
2018-10-21T00:32:51.961Z,8.00
2018-10-21T00:35:20.052Z,8.20
2018-10-21T00:37:48.138Z,8.30
2018-10-21T00:40:16.265Z,8.40
2018-10-21T00:42:44.325Z,8.50
2018-10-21T00:45:12.501Z,8.50
2018-10-21T00:47:40.469Z,8.60
2018-10-21T00:50:09.638Z,8.50
2018-10-21T00:52:37.695Z,8.60
2018-10-21T00:55:06.371Z,8.50
2018-10-21T00:57:34.430Z,8.40
2018-10-21T01:00:02.542Z,8.40
2018-10-21T01:02:30.594Z,8.40
2018-10-21T01:04:59.858Z,8.40
2018-10-21T01:07:27.907Z,8.30
2018-10-21T01:09:56.010Z,8.30
2018-10-21T01:12:24.055Z,8.20
2018-10-21T01:14:52.115Z,8.10
2018-10-21T01:17:20.155Z,8.00
2018-10-21T01:19:48.222Z,7.90
2018-10-21T01:22:16.312Z,7.80
2018-10-21T01:24:44.429Z,7.60
2018-10-21T01:27:12.526Z,7.50
2018-10-21T01:29:44.954Z,7.30
2018-10-21T01:32:13.446Z,7.10
2018-10-21T01:34:41.510Z,6.90
2018-10-21T01:37:09.622Z,6.70
2018-10-21T01:40:50.012Z,6.60
2018-10-21T01:43:20.723Z,6.40
2018-10-21T01:45:48.823Z,6.20
2018-10-21T01:48:18.203Z,6.20
2018-10-21T01:50:46.393Z,6.00
2018-10-21T01:53:15.675Z,5.90
2018-10-21T01:55:43.766Z,5.80
2018-10-21T01:58:11.853Z,5.70
2018-10-21T02:00:40.530Z,5.60
2018-10-21T02:03:08.675Z,5.50
2018-10-21T02:05:37.187Z,5.50
2018-10-21T02:08:05.463Z,5.50
2018-10-21T02:10:33.627Z,5.50
2018-10-21T02:13:01.831Z,5.40
2018-10-21T02:15:29.930Z,5.20
2018-10-21T02:17:58.050Z,4.90
2018-10-21T02:20:26.412Z,4.70
2018-10-21T02:22:54.487Z,4.60
2018-10-21T02:25:22.573Z,4.50
2018-10-21T02:27:52.262Z,4.50
2018-10-21T02:30:22.495Z,4.50
2018-10-21T02:32:51.233Z,4.50
2018-10-21T02:35:19.880Z,4.50
2018-10-21T02:37:48.349Z,4.60
2018-10-21T02:42:23.191Z,4.60
2018-10-21T02:44:51.271Z,4.50
2018-10-21T02:47:19.351Z,4.20
2018-10-21T02:49:47.439Z,3.80
2018-10-21T02:52:15.589Z,3.50
2018-10-21T02:54:44.387Z,3.40
2018-10-21T02:57:13.590Z,3.30
2018-10-21T02:59:41.713Z,3.30
2018-10-21T03:02:09.841Z,3.30
2018-10-21T03:04:38.567Z,3.40
2018-10-21T03:07:06.685Z,3.40
2018-10-21T03:09:34.795Z,3.50
2018-10-21T03:12:02.904Z,3.50
2018-10-21T03:14:31.002Z,3.60
2018-10-21T03:16:59.138Z,3.60
2018-10-21T03:19:27.253Z,3.50
2018-10-21T03:21:55.378Z,3.40
2018-10-21T06:46:57.516Z,3.70
2018-10-21T06:49:25.740Z,4.80
2018-10-21T06:51:53.897Z,5.00
2018-10-21T06:54:22.026Z,5.20
2018-10-21T06:56:50.263Z,5.30
2018-10-21T06:59:18.289Z,5.50
2018-10-21T07:01:47.291Z,5.60
2018-10-21T07:04:16.545Z,5.60
2018-10-21T07:06:44.621Z,5.60
2018-10-21T07:09:12.783Z,5.70
2018-10-21T07:11:40.865Z,5.80
2018-10-21T07:14:08.953Z,6.20
2018-10-21T07:16:37.138Z,6.60
2018-10-21T07:19:05.290Z,6.80
2018-10-21T07:21:33.476Z,6.80
2018-10-21T07:24:01.698Z,6.80
2018-10-21T07:26:29.849Z,6.80
2018-10-21T07:28:58.008Z,6.80
2018-10-21T07:31:26.126Z,6.90
2018-10-21T07:33:54.298Z,7.20
2018-10-21T07:36:22.468Z,7.40
2018-10-21T07:38:50.524Z,7.70
2018-10-21T07:41:18.671Z,8.10
2018-10-21T07:43:46.811Z,8.40
2018-10-21T07:46:15.033Z,8.50
2018-10-21T07:48:43.073Z,8.50
2018-10-21T07:51:11.179Z,8.40
2018-10-21T07:53:41.297Z,8.30
2018-10-21T07:56:09.414Z,8.40
2018-10-21T07:58:37.548Z,8.70
2018-10-21T08:01:05.806Z,9.00
2018-10-21T08:03:34.001Z,9.10
2018-10-21T08:06:24.761Z,9.10
2018-10-21T08:08:52.915Z,9.10
2018-10-21T08:11:21.035Z,9.20
2018-10-21T08:13:49.160Z,9.50
2018-10-21T08:16:17.306Z,10.00
2018-10-21T08:18:45.429Z,10.30
2018-10-21T08:21:13.593Z,10.50
2018-10-21T08:23:41.689Z,10.60
2018-10-21T08:26:09.804Z,10.90
2018-10-21T08:28:37.892Z,11.60
2018-10-21T08:31:06.019Z,12.50
2018-10-21T08:33:34.138Z,13.10
2018-10-21T08:36:02.263Z,13.40
2018-10-21T08:38:30.379Z,13.60
2018-10-21T08:40:58.493Z,14.30
2018-10-21T08:43:26.596Z,15.30
2018-10-21T08:45:54.690Z,16.10
2018-10-21T08:48:23.013Z,17.10
2018-10-21T08:50:51.125Z,17.90
2018-10-21T08:53:19.244Z,18.80
2018-10-21T08:55:47.357Z,19.30
2018-10-21T08:58:15.525Z,19.80
2018-10-21T09:00:43.563Z,20.40
2018-10-21T09:03:11.622Z,21.20
2018-10-21T09:05:39.759Z,22.20
2018-10-21T09:08:07.841Z,22.70
2018-10-21T09:10:35.995Z,23.10
2018-10-21T09:13:04.123Z,22.90
2018-10-21T09:15:32.269Z,22.50
2018-10-21T09:18:00.296Z,22.50
2018-10-21T09:20:28.396Z,22.80
2018-10-21T09:22:56.511Z,23.20
2018-10-21T09:25:24.627Z,23.20
2018-10-21T09:27:52.714Z,23.50
2018-10-21T09:30:20.793Z,23.80
2018-10-21T09:32:48.992Z,24.10
2018-10-21T09:35:18.120Z,24.20
2018-10-21T09:37:46.576Z,24.20
2018-10-21T09:40:16.002Z,23.50
2018-10-21T09:42:44.377Z,23.30
2018-10-21T09:45:13.908Z,23.50
2018-10-21T09:47:42.261Z,23.90
2018-10-21T09:50:10.491Z,24.40
2018-10-21T09:52:38.610Z,24.30
2018-10-21T09:55:11.555Z,24.20
2018-10-21T09:57:39.738Z,24.20
2018-10-21T10:00:07.844Z,23.90
2018-10-21T10:02:41.282Z,24.80
2018-10-21T10:05:09.461Z,26.50
2018-10-21T10:07:37.531Z,26.20
2018-10-21T10:10:07.490Z,25.40
2018-10-21T10:12:35.589Z,25.40
2018-10-21T10:15:04.674Z,25.40
2018-10-21T10:17:32.904Z,25.00
2018-10-21T10:20:01.043Z,25.20
2018-10-21T10:22:29.152Z,25.40
2018-10-21T10:24:58.172Z,25.80
2018-10-21T10:27:26.235Z,27.20
2018-10-21T10:29:54.322Z,26.80
2018-10-21T10:35:15.840Z,25.20
2018-10-21T10:37:43.965Z,25.10
2018-10-21T10:40:13.046Z,25.10
2018-10-21T10:42:41.229Z,25.70
2018-10-21T10:45:09.338Z,28.00
2018-10-21T10:47:37.933Z,28.20
2018-10-21T10:50:07.205Z,27.60
2018-10-21T10:52:35.318Z,26.60
2018-10-21T10:55:03.491Z,26.80
2018-10-21T10:57:31.611Z,27.30
2018-10-21T10:59:59.817Z,26.60
2018-10-21T11:02:27.878Z,27.70
2018-10-21T11:04:57.004Z,27.70
2018-10-21T11:07:25.086Z,28.30
2018-10-21T11:09:53.200Z,28.00
2018-10-21T11:12:21.473Z,27.00
2018-10-21T11:14:49.641Z,27.70
2018-10-21T11:17:17.748Z,26.90
2018-10-21T11:19:45.829Z,27.60
2018-10-21T11:22:13.938Z,27.40
2018-10-21T11:24:46.902Z,27.10
2018-10-21T11:27:15.609Z,27.40
2018-10-21T11:29:43.796Z,26.90
2018-10-21T11:32:11.885Z,26.50
2018-10-21T11:34:40.051Z,26.70
2018-10-21T11:37:08.590Z,26.40
2018-10-21T11:39:36.671Z,26.90
2018-10-21T11:42:05.170Z,27.50
2018-10-21T11:44:33.257Z,28.20
2018-10-21T11:47:01.406Z,28.20
2018-10-21T11:49:29.529Z,26.90
2018-10-21T11:51:57.640Z,26.90
2018-10-21T11:54:25.713Z,27.00
2018-10-21T11:56:53.810Z,27.20
2018-10-21T11:59:21.946Z,27.40
2018-10-21T12:01:50.085Z,28.60
2018-10-21T12:04:18.214Z,30.70
2018-10-21T12:06:46.593Z,31.50
2018-10-21T12:09:14.728Z,31.40
2018-10-21T12:11:42.833Z,30.20
2018-10-21T12:14:11.252Z,29.70
2018-10-21T12:16:39.458Z,30.00
2018-10-21T12:19:08.615Z,29.00
2018-10-21T12:21:36.805Z,28.20
2018-10-21T12:24:05.210Z,28.00
2018-10-21T12:26:33.371Z,27.90
2018-10-21T12:29:01.553Z,27.40
2018-10-21T12:31:29.706Z,27.70
2018-10-21T12:33:57.851Z,27.80
2018-10-21T12:36:25.918Z,29.20
2018-10-21T12:38:54.085Z,29.80
2018-10-21T12:41:22.222Z,29.80
2018-10-21T12:43:50.354Z,29.20
2018-10-21T12:46:18.447Z,29.40
2018-10-21T12:48:46.603Z,29.50
2018-10-21T12:51:14.679Z,28.90
2018-10-21T12:53:42.769Z,27.90
2018-10-21T12:56:10.862Z,27.70
2018-10-21T12:58:40.320Z,28.10
2018-10-21T13:01:08.823Z,29.50
2018-10-21T13:03:36.937Z,30.10
2018-10-21T13:06:05.106Z,30.50
2018-10-21T13:08:33.210Z,31.00
2018-10-21T13:11:01.300Z,31.80
2018-10-21T13:13:29.462Z,31.90
2018-10-21T13:15:57.499Z,31.40
2018-10-21T13:18:25.606Z,30.50
2018-10-21T13:20:53.734Z,30.10
2018-10-21T13:23:21.840Z,31.40
2018-10-21T13:25:49.961Z,31.40
2018-10-21T13:28:18.095Z,30.50
2018-10-21T13:30:46.195Z,30.50
2018-10-21T13:33:14.327Z,30.70
2018-10-21T13:35:42.425Z,30.70
2018-10-21T13:38:10.689Z,30.10
2018-10-21T13:40:38.909Z,29.60
2018-10-21T13:43:07.215Z,29.40
2018-10-21T13:45:35.255Z,29.00
2018-10-21T13:48:03.407Z,29.10
2018-10-21T13:50:31.490Z,29.30
2018-10-21T13:52:59.638Z,29.20
2018-10-21T13:55:27.707Z,28.60
2018-10-21T13:57:55.793Z,27.40
2018-10-21T14:00:23.927Z,27.00
2018-10-21T14:02:52.053Z,27.00
2018-10-21T14:05:20.170Z,27.20
2018-10-21T14:07:48.268Z,27.50
2018-10-21T14:10:16.464Z,27.20
2018-10-21T14:12:44.504Z,26.80
2018-10-21T14:15:12.705Z,26.30
2018-10-21T14:17:40.806Z,26.40
2018-10-21T14:20:10.014Z,26.20
2018-10-21T14:22:38.233Z,26.80
2018-10-21T14:25:06.560Z,27.40
2018-10-21T14:27:34.609Z,27.50
2018-10-21T14:30:02.934Z,26.10
2018-10-21T14:32:31.036Z,24.90
2018-10-21T14:34:59.161Z,24.10
2018-10-21T14:37:27.272Z,23.40
2018-10-21T14:39:55.410Z,22.10
2018-10-21T14:42:23.452Z,20.30
2018-10-21T14:44:51.562Z,18.60
2018-10-21T14:47:19.654Z,17.40
2018-10-21T14:49:47.812Z,16.60
2018-10-21T14:52:15.875Z,16.10
2018-10-21T14:54:44.000Z,15.70
